Time;durP1;ratioP1;P1;durP2;ratioP2;P2;SDS_P1;SDS_P2;PMS_P1;PMS_P2;Temp;Humidity;BMP_temperature;BMP_pressure;BME280_temperature;BME280_humidity;BME280_pressure;Samples;Min_cycle;Max_cycle;Signal;HPM_P1;HPM_P2
2023/09/03 00:00:40;;;;;;;6.30;4.30;;;;;;;30.08;39.63;101276.34;102808;1290;61400;-83
2023/09/03 00:03:05;;;;;;;6.20;4.30;;;;;;;30.07;39.71;101275.28;103044;1294;62314;-83
2023/09/03 00:05:31;;;;;;;6.80;4.20;;;;;;;30.08;39.69;101273.61;102869;1293;61411;-83
2023/09/03 00:07:57;;;;;;;6.10;4.10;;;;;;;30.07;39.75;101276.40;102864;1291;61397;-83
2023/09/03 00:10:23;;;;;;;5.80;4.20;;;;;;;30.07;39.68;101272.95;102911;1291;61857;-83
2023/09/03 00:12:50;;;;;;;4.80;3.80;;;;;;;30.07;39.72;101270.41;102890;1291;62432;-83
2023/09/03 00:15:16;;;;;;;5.30;4.10;;;;;;;30.07;39.74;101274.77;102905;1290;61403;-83
2023/09/03 00:17:43;;;;;;;6.40;4.20;;;;;;;30.07;39.80;101276.23;102779;1292;61385;-83
2023/09/03 00:20:10;;;;;;;6.40;4.30;;;;;;;30.07;39.77;101274.79;102851;1291;62174;-83
2023/09/03 00:22:35;;;;;;;7.90;4.60;;;;;;;30.07;39.76;101275.52;102841;1293;61602;-83
2023/09/03 00:25:01;;;;;;;6.40;4.40;;;;;;;30.07;39.73;101274.09;102818;1293;62640;-83
2023/09/03 00:27:26;;;;;;;5.70;3.90;;;;;;;30.08;39.83;101275.27;102831;1291;61322;-82
2023/09/03 00:29:52;;;;;;;7.10;4.40;;;;;;;30.06;39.86;101276.30;102989;1291;61471;-82
2023/09/03 00:32:17;;;;;;;6.20;4.40;;;;;;;30.06;39.68;101273.23;103209;1291;61374;-81
2023/09/03 00:34:43;;;;;;;6.70;4.20;;;;;;;30.07;39.80;101271.36;102798;1291;61394;-81
2023/09/03 00:37:08;;;;;;;8.20;4.70;;;;;;;30.06;39.81;101264.34;102798;1291;62624;-81
2023/09/03 00:39:34;;;;;;;6.50;4.40;;;;;;;30.06;39.74;101261.63;102861;1291;61438;-81
2023/09/03 00:41:59;;;;;;;5.60;4.10;;;;;;;30.06;39.93;101266.02;102827;1291;61317;-82
2023/09/03 00:44:25;;;;;;;6.00;4.30;;;;;;;30.06;39.82;101265.61;102922;1289;61411;-82
2023/09/03 00:46:51;;;;;;;5.30;4.10;;;;;;;30.06;39.85;101265.63;102794;1291;61423;-82
2023/09/03 00:49:20;;;;;;;6.50;4.70;;;;;;;30.06;39.89;101262.58;102815;1289;61419;-82
2023/09/03 00:51:45;;;;;;;6.40;4.40;;;;;;;30.06;39.94;101261.32;102877;1294;61464;-82
2023/09/03 00:54:11;;;;;;;6.60;4.90;;;;;;;30.05;39.89;101261.15;102728;1291;61400;-83
2023/09/03 00:56:36;;;;;;;7.30;4.10;;;;;;;30.05;39.86;101255.91;102785;1295;61416;-82
2023/09/03 00:59:02;;;;;;;6.10;4.40;;;;;;;30.05;39.85;101258.80;102837;1293;61399;-83
2023/09/03 01:01:27;;;;;;;6.30;4.50;;;;;;;30.05;39.88;101260.26;102817;1296;61455;-83
2023/09/03 01:03:53;;;;;;;6.00;4.30;;;;;;;30.05;39.89;101261.78;102873;1294;62499;-82
2023/09/03 01:06:18;;;;;;;6.10;4.40;;;;;;;30.05;39.86;101257.80;102780;1291;61446;-82
2023/09/03 01:08:45;;;;;;;6.20;4.40;;;;;;;30.05;39.84;101258.52;102944;1291;61816;-82
2023/09/03 01:11:24;;;;;;;6.30;4.40;;;;;;;30.04;40.01;101257.30;102787;1291;62121;-82
2023/09/03 01:13:51;;;;;;;6.40;4.30;;;;;;;30.04;39.90;101255.15;102870;1291;64544;-82
2023/09/03 01:16:32;;;;;;;6.40;4.50;;;;;;;30.04;39.81;101258.01;102897;1291;61420;-82
2023/09/03 01:18:57;;;;;;;6.50;4.10;;;;;;;30.04;40.09;101258.58;102757;1297;63764;-83
2023/09/03 01:21:32;;;;;;;8.30;4.70;;;;;;;30.04;39.94;101257.87;102790;1291;62340;-83
2023/09/03 01:24:04;;;;;;;6.60;4.50;;;;;;;30.04;39.91;101260.08;102917;1291;61424;-84
2023/09/03 01:26:38;;;;;;;7.10;4.80;;;;;;;30.04;39.93;101259.90;103211;1290;61300;-82
2023/09/03 01:29:03;;;;;;;5.70;4.20;;;;;;;30.03;39.87;101257.39;102875;1290;64735;-82
2023/09/03 01:31:29;;;;;;;6.20;4.70;;;;;;;30.03;39.86;101256.13;102770;1296;61461;-83
2023/09/03 01:34:01;;;;;;;6.90;4.30;;;;;;;30.03;39.97;101257.39;102804;1291;61418;-83
2023/09/03 01:36:28;;;;;;;6.30;4.20;;;;;;;30.03;39.83;101258.30;102995;1291;61390;-83
2023/09/03 01:38:54;;;;;;;5.20;4.10;;;;;;;30.03;39.82;101258.92;102793;1296;64813;-83
2023/09/03 01:41:19;;;;;;;7.10;4.70;;;;;;;30.03;40.00;101258.71;102884;1290;62132;-83
2023/09/03 01:43:45;;;;;;;6.20;4.50;;;;;;;30.03;39.95;101257.79;102856;1291;62361;-83
2023/09/03 01:46:18;;;;;;;6.80;4.30;;;;;;;30.03;39.89;101259.25;102949;1293;61354;-84
2023/09/03 01:48:56;;;;;;;6.20;4.20;;;;;;;30.03;39.84;101258.19;102917;1293;64808;-81
2023/09/03 01:51:43;;;;;;;6.30;4.40;;;;;;;30.02;39.92;101253.49;102861;1291;65943;-81
2023/09/03 01:54:11;;;;;;;5.90;4.50;;;;;;;30.02;40.00;101251.77;102944;1291;61293;-81
2023/09/03 01:56:42;;;;;;;6.40;4.60;;;;;;;30.02;39.96;101252.85;102898;1291;61412;-82
2023/09/03 01:59:20;;;;;;;5.90;4.00;;;;;;;30.02;39.85;101253.23;102886;1291;63933;-82
2023/09/03 02:01:47;;;;;;;6.40;4.50;;;;;;;30.01;39.94;101251.08;102747;1296;65912;-82
2023/09/03 02:04:12;;;;;;;6.10;4.40;;;;;;;30.01;39.90;101246.58;102973;1291;62296;-82
2023/09/03 02:06:38;;;;;;;6.20;4.50;;;;;;;30.01;40.01;101246.38;102989;1291;61460;-82
2023/09/03 02:09:03;;;;;;;6.30;4.30;;;;;;;30.01;39.87;101244.20;102891;1291;61396;-82
2023/09/03 02:11:29;;;;;;;5.50;4.20;;;;;;;30.00;39.97;101239.57;102742;1291;62290;-82
2023/09/03 02:13:54;;;;;;;5.50;4.10;;;;;;;30.00;39.86;101240.62;102844;1290;61345;-81
2023/09/03 02:16:21;;;;;;;6.20;4.60;;;;;;;30.01;39.87;101240.62;102949;1291;61398;-82
2023/09/03 02:18:46;;;;;;;6.00;4.70;;;;;;;30.00;39.71;101237.01;102794;1296;61417;-82
2023/09/03 02:21:12;;;;;;;6.20;4.30;;;;;;;30.00;40.00;101233.01;102916;1291;61393;-82
2023/09/03 02:23:38;;;;;;;6.20;4.50;;;;;;;30.01;39.85;101233.38;102773;1291;61415;-83
2023/09/03 02:26:03;;;;;;;5.40;4.00;;;;;;;30.00;39.77;101232.70;102925;1296;61462;-83
2023/09/03 02:28:29;;;;;;;5.30;4.50;;;;;;;30.00;39.88;101231.95;102843;1291;62290;-83
2023/09/03 02:30:55;;;;;;;6.30;4.50;;;;;;;30.00;40.07;101234.87;102817;1291;61395;-83
2023/09/03 02:33:22;;;;;;;6.00;4.30;;;;;;;30.00;39.93;101229.84;102792;1296;61318;-83
2023/09/03 02:35:49;;;;;;;6.40;4.50;;;;;;;30.00;40.00;101227.66;102650;1294;66854;-83
2023/09/03 02:38:15;;;;;;;6.30;4.20;;;;;;;30.00;39.96;101230.03;102666;1294;61371;-84
2023/09/03 02:40:41;;;;;;;6.10;4.50;;;;;;;29.99;39.93;101232.78;102622;1294;62255;-81
2023/09/03 02:43:06;;;;;;;6.30;4.40;;;;;;;29.99;39.89;101233.50;102676;1296;61835;-82
2023/09/03 02:45:32;;;;;;;7.40;4.30;;;;;;;29.98;39.92;101236.52;102582;1299;61467;-82
2023/09/03 02:47:57;;;;;;;6.40;4.40;;;;;;;29.99;39.99;101240.10;102790;1294;62690;-82
2023/09/03 02:50:23;;;;;;;5.70;4.60;;;;;;;29.99;40.01;101242.81;102648;1294;61443;-82
2023/09/03 02:52:48;;;;;;;5.60;4.00;;;;;;;29.99;39.94;101240.09;102705;1294;61868;-82
2023/09/03 02:55:14;;;;;;;5.80;4.40;;;;;;;29.98;40.01;101236.52;102872;1294;62011;-82
2023/09/03 02:57:40;;;;;;;5.40;4.10;;;;;;;29.98;39.92;101238.20;102639;1296;61446;-82
2023/09/03 03:00:06;;;;;;;6.60;4.10;;;;;;;29.98;39.97;101235.30;102658;1294;62419;-82
2023/09/03 03:02:32;;;;;;;6.30;4.50;;;;;;;29.98;39.98;101232.23;102712;1294;61383;-84
2023/09/03 03:04:59;;;;;;;6.00;4.30;;;;;;;29.97;39.92;101231.17;102637;1295;61338;-81
2023/09/03 03:07:26;;;;;;;5.70;4.20;;;;;;;29.97;40.01;101229.17;102441;1292;64857;-81
2023/09/03 03:09:52;;;;;;;6.40;4.40;;;;;;;29.97;39.93;101228.63;102856;1293;65876;-81
2023/09/03 03:12:20;;;;;;;5.80;4.20;;;;;;;29.98;39.98;101227.70;102852;1291;61397;-81
2023/09/03 03:14:46;;;;;;;6.70;4.20;;;;;;;29.97;39.85;101230.84;102812;1291;61333;-81
2023/09/03 03:17:12;;;;;;;6.00;4.40;;;;;;;29.97;40.00;101235.36;102747;1296;61399;-81
2023/09/03 03:19:37;;;;;;;5.80;4.60;;;;;;;29.97;39.92;101238.83;102853;1291;61874;-81
2023/09/03 03:22:03;;;;;;;6.70;4.50;;;;;;;29.97;39.88;101238.10;103044;1296;61352;-81
2023/09/03 03:24:29;;;;;;;6.20;4.10;;;;;;;29.97;39.91;101238.32;102853;1290;61391;-81
2023/09/03 03:26:54;;;;;;;5.70;4.40;;;;;;;29.97;39.90;101237.77;102839;1291;61323;-81
2023/09/03 03:29:20;;;;;;;5.50;4.20;;;;;;;29.97;39.76;101239.95;102802;1293;61405;-81
2023/09/03 03:31:47;;;;;;;6.10;4.10;;;;;;;29.96;39.95;101237.83;102812;1291;61466;-82
2023/09/03 03:34:12;;;;;;;7.40;4.70;;;;;;;29.96;40.04;101233.88;102811;1294;61313;-82
2023/09/03 03:36:38;;;;;;;5.60;4.00;;;;;;;29.95;40.05;101232.27;102828;1291;61771;-82
2023/09/03 03:39:04;;;;;;;6.30;4.10;;;;;;;29.95;39.95;101232.98;102846;1296;62572;-82
2023/09/03 03:41:29;;;;;;;5.50;4.50;;;;;;;29.96;40.05;101234.60;102828;1294;61463;-83
2023/09/03 03:43:55;;;;;;;5.90;4.10;;;;;;;29.95;39.93;101235.35;102812;1291;62316;-82
2023/09/03 03:46:21;;;;;;;5.20;4.20;;;;;;;29.96;39.92;101242.60;102837;1291;62135;-83
2023/09/03 03:48:47;;;;;;;6.20;4.20;;;;;;;29.95;39.91;101252.42;102915;1291;61417;-83
2023/09/03 03:51:14;;;;;;;5.90;4.20;;;;;;;29.94;39.99;101258.54;102895;1293;62261;-83
2023/09/03 03:53:40;;;;;;;5.50;4.20;;;;;;;29.95;39.91;101267.48;102882;1291;61331;-83
2023/09/03 03:56:06;;;;;;;5.20;4.00;;;;;;;29.95;40.02;101271.11;102828;1296;62541;-83
2023/09/03 03:58:33;;;;;;;6.00;4.30;;;;;;;29.95;40.01;101265.16;103131;1291;62501;-83
2023/09/03 04:00:59;;;;;;;6.10;4.10;;;;;;;29.95;39.93;101260.83;102852;1293;61405;-83
2023/09/03 04:03:28;;;;;;;5.70;4.00;;;;;;;29.94;40.02;101256.67;102749;1291;62404;-83
2023/09/03 04:06:00;;;;;;;5.10;3.80;;;;;;;29.95;40.10;101255.92;102743;1297;62212;-83
2023/09/03 04:08:26;;;;;;;6.60;4.40;;;;;;;29.94;40.07;101251.23;102797;1290;62619;-83
2023/09/03 04:10:59;;;;;;;6.00;4.00;;;;;;;29.94;40.10;101252.52;102750;1296;61349;-83
2023/09/03 04:13:30;;;;;;;5.40;4.10;;;;;;;29.94;39.88;101254.35;102766;1292;65772;-83
2023/09/03 04:15:57;;;;;;;6.00;4.30;;;;;;;29.94;40.06;101253.46;102836;1293;61414;-83
2023/09/03 04:18:22;;;;;;;6.00;4.40;;;;;;;29.93;40.01;101250.39;102864;1291;62678;-83
2023/09/03 04:20:58;;;;;;;6.10;4.00;;;;;;;29.95;40.06;101253.91;102776;1291;62192;-81
2023/09/03 04:23:24;;;;;;;5.90;4.20;;;;;;;29.94;40.20;101252.68;102812;1290;66067;-83
2023/09/03 04:25:51;;;;;;;6.20;4.30;;;;;;;29.94;40.13;101257.21;102878;1293;61393;-82
2023/09/03 04:28:19;;;;;;;5.50;4.20;;;;;;;29.94;40.10;101258.67;102960;1291;61854;-82
2023/09/03 04:30:45;;;;;;;5.40;4.00;;;;;;;29.94;39.99;101257.59;102848;1291;63730;-82
2023/09/03 04:33:11;;;;;;;6.30;4.00;;;;;;;29.94;40.06;101255.41;102766;1296;62648;-83
2023/09/03 04:35:36;;;;;;;6.30;4.20;;;;;;;29.94;40.10;101250.52;102839;1291;62493;-83
2023/09/03 04:38:02;;;;;;;5.60;4.10;;;;;;;29.94;40.07;101248.54;102825;1295;61396;-82
2023/09/03 04:40:32;;;;;;;5.60;4.40;;;;;;;29.94;40.02;101250.54;102785;1291;61360;-83
2023/09/03 04:42:57;;;;;;;6.10;4.40;;;;;;;29.94;40.01;101252.55;102866;1296;61408;-83
2023/09/03 04:45:23;;;;;;;6.40;4.20;;;;;;;29.94;40.12;101253.56;102823;1296;61404;-83
2023/09/03 04:47:48;;;;;;;5.60;4.20;;;;;;;29.95;40.02;101252.45;102904;1291;61487;-83
2023/09/03 04:50:14;;;;;;;5.50;4.10;;;;;;;29.95;40.11;101250.27;102839;1293;61312;-83
2023/09/03 04:52:42;;;;;;;6.30;4.20;;;;;;;29.95;40.13;101246.66;102860;1297;62564;-83
2023/09/03 04:55:08;;;;;;;5.60;3.80;;;;;;;29.94;40.02;101249.08;102839;1294;65878;-83
2023/09/03 04:57:33;;;;;;;4.70;3.70;;;;;;;29.94;39.97;101247.08;102953;1293;61405;-82
2023/09/03 05:00:00;;;;;;;5.30;3.80;;;;;;;29.95;40.00;101246.70;102837;1293;61398;-82
2023/09/03 05:02:25;;;;;;;6.70;4.20;;;;;;;29.94;40.02;101246.16;102847;1293;61372;-82
2023/09/03 05:04:51;;;;;;;6.60;4.30;;;;;;;29.94;39.99;101244.87;102745;1296;61751;-82
2023/09/03 05:07:16;;;;;;;5.60;4.30;;;;;;;29.95;39.94;101246.50;102832;1296;61404;-83
2023/09/03 05:09:42;;;;;;;6.40;4.10;;;;;;;29.94;40.07;101242.52;102793;1298;62418;-83
2023/09/03 05:12:08;;;;;;;5.50;3.80;;;;;;;29.95;39.99;101238.30;102894;1291;61491;-82
2023/09/03 05:14:33;;;;;;;5.70;4.10;;;;;;;29.95;39.96;101237.58;102829;1294;61398;-82
2023/09/03 05:17:00;;;;;;;6.90;4.20;;;;;;;29.94;39.99;101239.08;102911;1293;61399;-82
2023/09/03 05:19:26;;;;;;;7.30;4.50;;;;;;;29.94;39.94;101237.63;102867;1296;62355;-83
2023/09/03 05:21:51;;;;;;;7.30;4.30;;;;;;;29.95;39.88;101234.69;102846;1293;61375;-82
2023/09/03 05:24:17;;;;;;;6.20;4.40;;;;;;;29.95;39.98;101231.59;102830;1291;61410;-82
2023/09/03 05:26:43;;;;;;;4.90;4.10;;;;;;;29.96;39.97;101234.10;102851;1294;61424;-83
2023/09/03 05:29:09;;;;;;;5.50;4.20;;;;;;;29.95;39.97;101232.63;103001;1291;61387;-83
2023/09/03 05:31:35;;;;;;;6.10;4.20;;;;;;;29.96;39.89;101234.94;102729;1296;61445;-84
2023/09/03 05:34:02;;;;;;;5.80;3.80;;;;;;;29.96;39.95;101232.38;102815;1291;61393;-83
2023/09/03 05:36:27;;;;;;;6.80;4.20;;;;;;;29.96;39.95;101232.35;102699;1296;62140;-83
2023/09/03 05:38:53;;;;;;;5.20;4.10;;;;;;;29.97;39.96;101229.75;102747;1291;61394;-83
2023/09/03 05:41:18;;;;;;;5.20;3.80;;;;;;;29.97;39.98;101223.17;102739;1296;61399;-82
2023/09/03 05:43:44;;;;;;;4.70;3.90;;;;;;;29.98;39.84;101224.94;102836;1292;61339;-84
2023/09/03 05:46:10;;;;;;;5.60;3.90;;;;;;;29.98;39.82;101228.56;102871;1293;61303;-82
2023/09/03 05:48:36;;;;;;;5.20;4.10;;;;;;;29.99;39.85;101228.05;102796;1304;61313;-82
2023/09/03 05:51:05;;;;;;;6.00;4.30;;;;;;;29.99;39.79;101229.65;102442;1297;61454;-82
2023/09/03 05:53:32;;;;;;;5.30;4.10;;;;;;;29.99;39.84;101226.60;102738;1294;61372;-82
2023/09/03 05:56:08;;;;;;;6.30;4.00;;;;;;;30.01;39.83;101232.63;102867;1293;61428;-82
2023/09/03 05:58:33;;;;;;;5.00;4.00;;;;;;;30.01;39.84;101233.65;102800;1295;65826;-82
2023/09/03 06:01:03;;;;;;;5.10;3.90;;;;;;;30.03;39.94;101234.95;102721;1296;61458;-82
2023/09/03 06:03:29;;;;;;;5.50;3.90;;;;;;;30.03;39.91;101234.75;102452;1294;61392;-82
2023/09/03 06:05:54;;;;;;;5.80;3.90;;;;;;;30.04;39.97;101238.46;103106;1294;61759;-82
2023/09/03 06:08:20;;;;;;;6.20;4.10;;;;;;;30.05;39.92;101241.09;102731;1297;61530;-82
2023/09/03 06:10:45;;;;;;;5.00;3.90;;;;;;;30.05;39.98;101245.55;102729;1297;61418;-82
2023/09/03 06:13:11;;;;;;;5.00;3.90;;;;;;;30.06;40.00;101246.75;102801;1294;61409;-82
2023/09/03 06:15:37;;;;;;;5.10;3.80;;;;;;;30.06;39.84;101247.61;102778;1293;61377;-82
2023/09/03 06:18:02;;;;;;;4.80;3.60;;;;;;;30.07;39.98;101250.80;102828;1292;62536;-82
2023/09/03 06:20:28;;;;;;;5.10;4.00;;;;;;;30.08;40.03;101249.28;102760;1296;61400;-82
2023/09/03 06:22:53;;;;;;;5.20;3.60;;;;;;;30.08;39.92;101249.05;103140;1296;61465;-82
2023/09/03 06:25:19;;;;;;;5.70;4.10;;;;;;;30.09;40.05;101249.33;102746;1297;62162;-82
2023/09/03 06:27:45;;;;;;;5.40;3.90;;;;;;;30.10;40.04;101249.64;102735;1296;61321;-82
2023/09/03 06:30:11;;;;;;;5.40;3.80;;;;;;;30.11;39.89;101249.17;103214;1294;61427;-83
2023/09/03 06:32:37;;;;;;;6.00;3.70;;;;;;;30.11;39.96;101249.73;102790;1295;61348;-82
2023/09/03 06:35:04;;;;;;;5.10;3.80;;;;;;;30.12;40.08;101251.40;102815;1298;61395;-82
2023/09/03 06:37:30;;;;;;;5.60;3.70;;;;;;;30.13;40.07;101248.39;102851;1296;62030;-83
2023/09/03 06:39:55;;;;;;;6.10;3.60;;;;;;;30.14;40.03;101253.77;102839;1295;61429;-83
2023/09/03 06:42:22;;;;;;;5.30;3.90;;;;;;;30.14;40.03;101253.21;102785;1296;61498;-82
2023/09/03 06:44:47;;;;;;;5.30;3.70;;;;;;;30.15;40.01;101256.23;102800;1292;62387;-82
2023/09/03 06:47:13;;;;;;;4.80;3.90;;;;;;;30.16;40.08;101257.41;102831;1299;61412;-82
2023/09/03 06:49:38;;;;;;;5.70;3.90;;;;;;;30.16;39.97;101255.88;102833;1292;61289;-82
2023/09/03 06:52:05;;;;;;;4.90;3.50;;;;;;;30.17;40.03;101252.59;102887;1292;61395;-82
2023/09/03 06:54:30;;;;;;;5.20;3.70;;;;;;;30.17;40.21;101253.64;102845;1298;61389;-82
2023/09/03 06:56:56;;;;;;;6.20;4.10;;;;;;;30.18;39.81;101257.36;102951;1293;61385;-82
2023/09/03 06:59:23;;;;;;;4.30;3.40;;;;;;;30.18;39.98;101252.77;102835;1297;61402;-82
2023/09/03 07:01:52;;;;;;;5.90;3.90;;;;;;;30.18;39.93;101252.59;102762;1297;61400;-82
2023/09/03 07:04:18;;;;;;;5.00;3.80;;;;;;;30.19;40.02;101252.02;102853;1297;64041;-83
2023/09/03 07:06:43;;;;;;;5.00;3.80;;;;;;;30.19;39.86;101251.04;102837;1294;61383;-83
2023/09/03 07:09:10;;;;;;;5.80;4.20;;;;;;;30.20;40.00;101249.88;102841;1293;63540;-83
2023/09/03 07:11:37;;;;;;;5.70;3.90;;;;;;;30.21;39.82;101248.15;102847;1295;61292;-82
2023/09/03 07:14:03;;;;;;;5.60;3.70;;;;;;;30.20;39.82;101250.19;102811;1295;61373;-82
2023/09/03 07:16:29;;;;;;;5.30;3.90;;;;;;;30.21;39.89;101254.14;102978;1293;61840;-83
2023/09/03 07:18:55;;;;;;;5.80;3.90;;;;;;;30.21;39.90;101251.72;102820;1298;61441;-83
2023/09/03 07:21:20;;;;;;;4.80;3.30;;;;;;;30.22;40.00;101255.85;102828;1292;61431;-84
2023/09/03 07:23:47;;;;;;;5.50;4.00;;;;;;;30.22;40.00;101253.98;102782;1306;61398;-83
2023/09/03 07:26:12;;;;;;;5.00;3.50;;;;;;;30.22;39.88;101246.76;102852;1297;61799;-84
2023/09/03 07:28:39;;;;;;;5.10;3.50;;;;;;;30.22;39.86;101249.25;102810;1293;65623;-82
2023/09/03 07:31:05;;;;;;;5.10;3.70;;;;;;;30.23;39.86;101249.39;102881;1294;61382;-83
2023/09/03 07:33:32;;;;;;;5.70;4.00;;;;;;;30.23;39.85;101250.82;102830;1289;61317;-83
2023/09/03 07:35:58;;;;;;;5.20;3.80;;;;;;;30.23;39.90;101254.05;102853;1297;65022;-83
2023/09/03 07:38:27;;;;;;;5.30;3.80;;;;;;;30.23;39.87;101252.77;102868;1293;61392;-83
2023/09/03 07:40:53;;;;;;;4.90;3.60;;;;;;;30.24;39.78;101253.08;102868;1291;61297;-83
2023/09/03 07:43:19;;;;;;;4.80;3.30;;;;;;;30.24;39.78;101254.91;102689;1291;61951;-83
2023/09/03 07:45:45;;;;;;;5.90;3.80;;;;;;;30.25;39.71;101257.67;102796;1293;61360;-83
2023/09/03 07:48:10;;;;;;;5.10;3.60;;;;;;;30.24;39.79;101256.31;102691;1297;61470;-83
2023/09/03 07:50:39;;;;;;;5.10;3.80;;;;;;;30.25;39.87;101256.96;102868;1291;61420;-83
2023/09/03 07:53:05;;;;;;;5.10;3.80;;;;;;;30.25;39.76;101258.08;102793;1291;61306;-83
2023/09/03 07:55:31;;;;;;;5.00;3.80;;;;;;;30.25;39.85;101260.97;102726;1296;62591;-83
2023/09/03 07:57:57;;;;;;;5.80;3.70;;;;;;;30.25;39.80;101264.20;102829;1293;61366;-83
2023/09/03 08:00:23;;;;;;;5.10;4.00;;;;;;;30.25;39.73;101265.81;102993;1296;61408;-83
2023/09/03 08:02:49;;;;;;;4.80;3.50;;;;;;;30.25;39.79;101266.91;102828;1290;61379;-83
2023/09/03 08:05:15;;;;;;;4.70;3.70;;;;;;;30.26;39.64;101262.89;102789;1296;61494;-83
2023/09/03 08:07:41;;;;;;;5.00;3.60;;;;;;;30.25;39.76;101260.40;102839;1294;61415;-83
2023/09/03 08:10:08;;;;;;;5.20;3.50;;;;;;;30.25;39.75;101260.40;102862;1293;66031;-83
2023/09/03 08:12:33;;;;;;;5.30;3.80;;;;;;;30.25;39.77;101256.73;102847;1294;61405;-83
2023/09/03 08:14:59;;;;;;;6.20;3.80;;;;;;;30.26;39.71;101250.18;102805;1290;61395;-83
2023/09/03 08:17:26;;;;;;;5.90;3.50;;;;;;;30.26;39.78;101248.12;102842;1296;61527;-83
2023/09/03 08:19:52;;;;;;;5.20;3.50;;;;;;;30.25;39.79;101243.66;102830;1296;61336;-83
2023/09/03 08:22:18;;;;;;;5.30;3.70;;;;;;;30.25;39.73;101244.05;102792;1291;61482;-83
2023/09/03 08:24:44;;;;;;;5.10;3.70;;;;;;;30.26;39.76;101242.91;102864;1291;61398;-83
2023/09/03 08:27:09;;;;;;;5.60;3.70;;;;;;;30.26;39.71;101239.98;102848;1297;62353;-84
2023/09/03 08:29:35;;;;;;;5.00;3.70;;;;;;;30.25;39.73;101236.77;102770;1297;61393;-84
2023/09/03 08:32:01;;;;;;;5.50;3.90;;;;;;;30.26;39.68;101236.57;102776;1297;62859;-81
2023/09/03 08:34:26;;;;;;;5.40;3.60;;;;;;;30.25;39.90;101232.96;102824;1289;61456;-81
2023/09/03 08:36:52;;;;;;;5.20;3.60;;;;;;;30.25;39.78;101227.35;103090;1297;61446;-82
2023/09/03 08:39:17;;;;;;;4.60;3.60;;;;;;;30.26;39.82;101220.77;102817;1297;62447;-81
2023/09/03 08:41:43;;;;;;;4.70;3.50;;;;;;;30.25;39.71;101217.17;102883;1293;61410;-82
2023/09/03 08:44:33;;;;;;;5.10;3.70;;;;;;;30.25;39.78;101209.74;102782;1296;61414;-81
2023/09/03 08:46:59;;;;;;;4.30;3.40;;;;;;;30.25;39.84;101208.52;102827;1291;61311;-82
2023/09/03 08:49:29;;;;;;;4.80;3.60;;;;;;;30.25;39.77;101209.05;102792;1291;61413;-82
2023/09/03 08:51:57;;;;;;;5.90;4.00;;;;;;;30.25;39.78;101206.52;102804;1294;63856;-82
2023/09/03 08:54:22;;;;;;;5.00;3.60;;;;;;;30.25;39.82;101203.05;102971;1290;65987;-83
2023/09/03 08:56:48;;;;;;;4.30;3.50;;;;;;;30.25;39.76;101202.16;102843;1293;61444;-83
2023/09/03 08:59:13;;;;;;;5.00;3.80;;;;;;;30.25;39.75;101198.30;102845;1291;61496;-82
2023/09/03 09:01:39;;;;;;;4.90;3.40;;;;;;;30.25;39.71;101197.97;102776;1293;61862;-82
2023/09/03 09:04:05;;;;;;;6.00;3.80;;;;;;;30.25;39.73;101196.14;102901;1290;61331;-82
2023/09/03 09:06:31;;;;;;;4.60;3.40;;;;;;;30.25;39.73;101189.96;102861;1290;66712;-82
2023/09/03 09:08:58;;;;;;;5.20;3.60;;;;;;;30.25;39.76;101185.44;102794;1290;61411;-82
2023/09/03 09:11:23;;;;;;;4.60;3.30;;;;;;;30.25;39.77;101183.40;102779;1298;61425;-83
2023/09/03 09:13:58;;;;;;;4.70;3.50;;;;;;;30.25;39.74;101176.13;102833;1291;61562;-82
2023/09/03 09:16:23;;;;;;;4.70;3.50;;;;;;;30.25;39.77;101176.36;102752;1291;65855;-83
2023/09/03 09:18:49;;;;;;;5.70;3.60;;;;;;;30.25;39.70;101168.56;102848;1297;62297;-82
2023/09/03 09:21:16;;;;;;;5.20;3.70;;;;;;;30.25;39.64;101165.42;102831;1291;61301;-82
2023/09/03 09:23:41;;;;;;;4.60;3.50;;;;;;;30.25;39.78;101165.05;102866;1294;61488;-82
2023/09/03 09:26:22;;;;;;;5.40;3.30;;;;;;;30.25;39.71;101164.30;102814;1291;61488;-83
2023/09/03 09:29:02;;;;;;;4.80;3.40;;;;;;;30.25;39.76;101161.96;102802;1296;61272;-82
2023/09/03 09:31:31;;;;;;;4.80;3.40;;;;;;;30.26;39.74;101162.13;102875;1291;61393;-83
2023/09/03 09:34:12;;;;;;;5.20;3.60;;;;;;;30.26;39.65;101163.20;102814;1291;63737;-83
2023/09/03 09:36:37;;;;;;;4.50;3.50;;;;;;;30.26;39.64;101160.84;102837;1291;65878;-83
2023/09/03 09:39:07;;;;;;;4.90;3.60;;;;;;;30.26;39.63;101159.52;102856;1293;61507;-83
2023/09/03 09:41:37;;;;;;;5.00;3.70;;;;;;;30.26;39.61;101154.98;102848;1290;61342;-83
2023/09/03 09:44:11;;;;;;;4.40;3.20;;;;;;;30.26;39.47;101152.98;102927;1293;63659;-83
2023/09/03 09:46:37;;;;;;;5.90;3.70;;;;;;;30.27;39.61;101152.98;102849;1291;65833;-83
2023/09/03 09:49:03;;;;;;;5.00;3.60;;;;;;;30.27;39.44;101150.94;102868;1293;61343;-82
2023/09/03 09:51:29;;;;;;;5.60;3.80;;;;;;;30.27;39.35;101143.70;102873;1291;61518;-83
2023/09/03 09:54:02;;;;;;;4.70;3.40;;;;;;;30.27;39.45;101141.14;102814;1296;61825;-83
2023/09/03 09:56:36;;;;;;;4.50;3.30;;;;;;;30.26;39.46;101132.86;102831;1296;66055;-83
2023/09/03 09:59:02;;;;;;;4.20;3.60;;;;;;;30.27;39.46;101126.47;103144;1293;61952;-83
2023/09/03 10:01:41;;;;;;;4.80;3.40;;;;;;;30.27;39.38;101122.80;102767;1296;61392;-83
2023/09/03 10:04:06;;;;;;;4.50;3.40;;;;;;;30.27;39.36;101118.64;102852;1293;63901;-83
2023/09/03 10:06:33;;;;;;;4.70;3.30;;;;;;;30.27;39.42;101114.08;102857;1291;62552;-83
2023/09/03 10:08:59;;;;;;;4.40;3.30;;;;;;;30.27;39.28;101109.35;102818;1294;61377;-83
2023/09/03 10:11:24;;;;;;;5.50;3.40;;;;;;;30.26;39.43;101107.58;102786;1291;61397;-83
2023/09/03 10:13:50;;;;;;;4.80;3.40;;;;;;;30.26;39.40;101103.96;102853;1291;62425;-83
2023/09/03 10:16:19;;;;;;;5.90;3.30;;;;;;;30.27;39.27;101100.29;102829;1296;61363;-83
2023/09/03 10:18:47;;;;;;;4.70;3.40;;;;;;;30.26;39.29;101094.58;102875;1291;65897;-83
2023/09/03 10:21:17;;;;;;;5.00;3.30;;;;;;;30.27;39.34;101093.41;102943;1291;61384;-83
2023/09/03 10:23:48;;;;;;;4.60;3.50;;;;;;;30.26;39.46;101090.21;102759;1293;61334;-82
2023/09/03 10:26:18;;;;;;;5.90;3.60;;;;;;;30.26;39.31;101090.23;102775;1295;64922;-83
2023/09/03 10:28:45;;;;;;;4.10;3.00;;;;;;;30.26;39.46;101088.98;103209;1293;65938;-83
2023/09/03 10:31:12;;;;;;;4.10;3.20;;;;;;;30.25;39.44;101089.91;102865;1291;61309;-83
2023/09/03 10:33:41;;;;;;;5.20;3.40;;;;;;;30.25;39.34;101090.83;102804;1289;61405;-83
2023/09/03 10:36:17;;;;;;;4.70;3.20;;;;;;;30.25;39.38;101089.56;102847;1291;63650;-83
2023/09/03 10:38:44;;;;;;;4.40;3.50;;;;;;;30.25;39.24;101085.58;102867;1293;65950;-81
2023/09/03 10:41:23;;;;;;;4.30;3.20;;;;;;;30.25;39.36;101078.33;102907;1291;62294;-81
2023/09/03 10:43:53;;;;;;;4.90;3.30;;;;;;;30.25;39.31;101077.24;102814;1291;61386;-81
2023/09/03 10:46:21;;;;;;;4.70;3.00;;;;;;;30.25;39.28;101076.36;102791;1291;64749;-83
2023/09/03 10:48:52;;;;;;;4.80;3.40;;;;;;;30.25;39.27;101074.73;102847;1291;65803;-83
2023/09/03 10:51:47;;;;;;;4.30;3.20;;;;;;;30.24;39.26;101071.52;102920;1291;61288;-82
2023/09/03 10:54:17;;;;;;;5.00;3.30;;;;;;;30.24;39.25;101069.20;102316;1302;61528;-83
2023/09/03 10:57:05;;;;;;;4.90;3.30;;;;;;;30.24;39.17;101067.38;102552;1296;63794;-83
2023/09/03 11:00:16;;;;;;;5.20;3.60;;;;;;;30.24;39.06;101065.02;102270;1296;66065;-84
2023/09/03 11:02:42;;;;;;;4.80;3.40;;;;;;;30.24;39.15;101060.54;102401;1297;61422;-81
2023/09/03 11:05:12;;;;;;;4.20;3.10;;;;;;;30.23;39.06;101056.52;102281;1296;61709;-81
2023/09/03 11:07:38;;;;;;;5.20;3.30;;;;;;;30.24;38.95;101053.96;102284;1297;63786;-81
2023/09/03 11:10:25;;;;;;;5.50;3.20;;;;;;;30.25;38.93;101051.68;102293;1302;61774;-83
2023/09/03 11:12:52;;;;;;;4.60;3.20;;;;;;;30.24;38.96;101043.81;102280;1296;61336;-83
2023/09/03 11:15:17;;;;;;;4.50;3.20;;;;;;;30.24;38.82;101045.90;102307;1297;61358;-83
2023/09/03 11:17:53;;;;;;;4.30;3.20;;;;;;;30.24;38.85;101039.98;102269;1302;61488;-83